createdAt,value
2018-12-13T00:07:09.918Z,6
2018-12-13T00:17:18.215Z,6
2018-12-13T00:27:26.865Z,5
2018-12-13T00:37:35.301Z,4
2018-12-13T00:47:43.617Z,5
2018-12-13T00:57:51.081Z,4
2018-12-13T01:07:59.665Z,4
2018-12-13T01:18:08.384Z,3
2018-12-13T01:28:16.029Z,4
2018-12-13T01:38:25.678Z,4
2018-12-13T01:48:33.877Z,3
2018-12-13T01:58:40.839Z,6
2018-12-13T02:08:48.725Z,42
2018-12-13T02:18:55.414Z,43
2018-12-13T02:29:02.848Z,16
2018-12-13T02:39:10.478Z,21
2018-12-13T02:49:17.886Z,36
2018-12-13T02:59:25.845Z,71
2018-12-13T03:09:30.964Z,32
2018-12-13T03:19:39.578Z,7
2018-12-13T03:29:47.891Z,4
2018-12-13T03:39:56.450Z,6
2018-12-13T03:50:04.044Z,4
2018-12-13T04:00:11.597Z,4
2018-12-13T04:10:19.423Z,4
2018-12-13T04:20:27.200Z,4
2018-12-13T04:30:34.848Z,4
2018-12-13T04:40:41.958Z,6
2018-12-13T04:50:48.161Z,5
2018-12-13T05:00:57.080Z,7
2018-12-13T05:11:04.315Z,5
2018-12-13T05:21:09.902Z,4
2018-12-13T05:31:16.868Z,4
2018-12-13T05:41:25.172Z,5
2018-12-13T05:51:32.459Z,5
2018-12-13T06:01:38.332Z,3
2018-12-13T06:11:47.816Z,5
2018-12-13T06:20:07.182Z,5
2018-12-13T06:30:41.859Z,4
2018-12-13T06:40:49.524Z,5
2018-12-13T06:50:58.466Z,5
2018-12-13T07:01:04.280Z,4
2018-12-13T07:11:11.107Z,4
2018-12-13T07:21:17.833Z,4
2018-12-13T07:31:25.736Z,7
2018-12-13T07:35:40.606Z,4
2018-12-13T07:45:53.846Z,5
2018-12-13T07:56:02.273Z,7
2018-12-13T08:06:11.488Z,7
2018-12-13T08:16:18.458Z,8
2018-12-13T08:26:26.566Z,4
2018-12-13T08:36:34.494Z,5
2018-12-13T08:46:41.581Z,4
2018-12-13T08:56:49.356Z,5
2018-12-13T09:06:57.423Z,4
2018-12-13T09:17:04.736Z,4
2018-12-13T09:27:12.802Z,5
2018-12-13T09:37:20.478Z,4
2018-12-13T09:47:28.084Z,4
2018-12-13T09:55:45.666Z,4
2018-12-13T10:05:54.618Z,5
2018-12-13T10:16:05.537Z,6
2018-12-13T10:26:11.750Z,9
2018-12-13T10:36:19.515Z,3
2018-12-13T10:42:56.180Z,5
2018-12-13T10:53:01.509Z,3
2018-12-13T11:03:07.630Z,6
2018-12-13T11:13:18.316Z,8
2018-12-13T11:23:25.554Z,6
2018-12-13T11:33:32.312Z,5
2018-12-13T11:39:50.582Z,5
2018-12-13T11:49:58.791Z,6
2018-12-13T11:58:19.505Z,5
2018-12-13T12:08:26.883Z,5
2018-12-13T12:18:33.447Z,6
2018-12-13T12:26:53.167Z,7
2018-12-13T12:36:59.849Z,4
2018-12-13T12:47:07.169Z,6
2018-12-13T12:57:15.106Z,5
2018-12-13T13:07:22.250Z,5
2018-12-13T13:09:04.808Z,5
2018-12-13T13:19:11.851Z,5
2018-12-13T13:29:19.479Z,7
2018-12-13T13:33:40.055Z,8
2018-12-13T13:38:51.975Z,6
2018-12-13T13:40:04.189Z,5
2018-12-13T13:50:11.278Z,12
2018-12-13T13:56:34.670Z,12
2018-12-13T13:57:43.204Z,12
2018-12-13T14:00:11.106Z,13
2018-12-13T14:01:50.609Z,14
2018-12-13T14:03:35.764Z,11
2018-12-13T14:04:49.972Z,14
2018-12-13T14:05:59.979Z,13
2018-12-13T14:09:17.216Z,23
2018-12-13T14:15:45.697Z,13
2018-12-13T14:25:48.238Z,15
2018-12-13T14:35:57.787Z,12
2018-12-13T14:41:01.469Z,13
2018-12-13T14:51:05.579Z,14
2018-12-13T15:00:06.616Z,16
2018-12-13T15:02:52.678Z,13
2018-12-13T15:10:50.519Z,12
2018-12-13T15:15:30.779Z,12
2018-12-13T15:19:43.069Z,15
2018-12-13T15:24:00.212Z,13
2018-12-13T15:34:03.410Z,18
2018-12-13T15:40:34.244Z,18
2018-12-13T15:50:59.383Z,19
2018-12-13T16:01:04.358Z,22
2018-12-13T16:11:26.084Z,19
2018-12-13T16:21:34.359Z,18
2018-12-13T16:31:40.577Z,19
2018-12-13T16:40:15.416Z,23
2018-12-13T16:50:21.490Z,30
2018-12-13T17:01:13.201Z,24
2018-12-13T17:09:31.048Z,32
2018-12-13T17:14:09.307Z,44
2018-12-13T17:15:25.032Z,43
2018-12-13T17:25:28.742Z,22
2018-12-13T17:35:37.759Z,16
2018-12-13T17:42:55.988Z,12
2018-12-13T17:44:22.030Z,14
2018-12-13T17:51:39.101Z,16
2018-12-13T18:01:48.553Z,14
2018-12-13T18:11:08.787Z,20
2018-12-13T18:20:33.919Z,18
2018-12-13T18:25:55.855Z,12
2018-12-13T18:27:45.342Z,13
2018-12-13T18:28:52.843Z,15
2018-12-13T18:39:00.177Z,14
2018-12-13T18:41:12.902Z,13
2018-12-13T18:44:04.986Z,15
2018-12-13T18:45:55.889Z,13
2018-12-13T18:48:34.820Z,14
2018-12-13T18:49:44.353Z,13
2018-12-13T18:52:37.295Z,15
2018-12-13T18:54:02.755Z,18
2018-12-13T19:01:18.676Z,16
2018-12-13T19:02:04.932Z,18
2018-12-13T19:03:40.486Z,19
2018-12-13T19:06:18.948Z,20
2018-12-13T19:08:06.806Z,21
2018-12-13T19:10:33.193Z,23
2018-12-13T19:13:00.313Z,17
2018-12-13T19:14:19.941Z,15
2018-12-13T19:16:01.141Z,15
2018-12-13T19:17:40.863Z,14
2018-12-13T19:21:08.684Z,14
2018-12-13T19:22:17.867Z,12
2018-12-13T19:24:35.069Z,15
2018-12-13T19:27:50.149Z,16
2018-12-13T19:29:03.464Z,17
2018-12-13T19:30:15.834Z,16
2018-12-13T19:31:28.769Z,15
2018-12-13T19:34:18.337Z,14
2018-12-13T19:36:28.989Z,12
2018-12-13T19:37:42.069Z,12
2018-12-13T19:40:20.919Z,12
2018-12-13T19:41:25.608Z,13
2018-12-13T19:43:49.879Z,12
2018-12-13T19:45:00.475Z,12
2018-12-13T19:46:14.424Z,15
2018-12-13T19:47:27.294Z,11
2018-12-13T19:48:53.447Z,13
2018-12-13T19:53:07.231Z,11
2018-12-13T20:03:13.079Z,26
2018-12-13T20:11:30.693Z,10
2018-12-13T20:21:37.296Z,13
2018-12-13T20:31:44.145Z,11
2018-12-13T20:41:53.085Z,9
2018-12-13T20:52:01.161Z,8
2018-12-13T21:02:09.724Z,7
2018-12-13T21:12:17.430Z,16
2018-12-13T21:22:23.693Z,7
2018-12-13T21:32:29.623Z,13
2018-12-13T21:42:37.503Z,8
2018-12-13T21:52:44.300Z,8
2018-12-13T22:02:53.248Z,9
2018-12-13T22:13:01.134Z,9
2018-12-13T22:23:10.097Z,11
2018-12-13T22:33:17.761Z,10
2018-12-13T22:43:23.161Z,10
2018-12-13T22:53:31.285Z,23
2018-12-13T23:03:37.457Z,40
2018-12-13T23:13:46.902Z,17
2018-12-13T23:23:54.409Z,16
2018-12-13T23:34:00.860Z,14
2018-12-13T23:42:18.799Z,10
2018-12-13T23:52:25.196Z,8
